sensor_id;sensor_type;location;lat;lon;timestamp;pressure;altitude;pressure_sealevel;temperature;humidity
71917;BME280;59793;46.506;6.674;2022-08-21T00:00:13;97294.63;;;20.41;70.18
71917;BME280;59793;46.506;6.674;2022-08-21T00:02:47;97295.75;;;20.43;69.89
71917;BME280;59793;46.506;6.674;2022-08-21T00:05:14;97288.84;;;20.42;70.16
71917;BME280;59793;46.506;6.674;2022-08-21T00:07:40;97287.81;;;20.36;70.18
71917;BME280;59793;46.506;6.674;2022-08-21T00:10:06;97282.03;;;20.38;69.79
71917;BME280;59793;46.506;6.674;2022-08-21T00:12:32;97279.44;;;20.30;70.34
71917;BME280;59793;46.506;6.674;2022-08-21T00:14:58;97283.69;;;20.24;70.89
71917;BME280;59793;46.506;6.674;2022-08-21T00:17:24;97274.56;;;20.22;70.67
71917;BME280;59793;46.506;6.674;2022-08-21T00:19:50;97267.69;;;20.21;70.61
71917;BME280;59793;46.506;6.674;2022-08-21T00:22:16;97271.50;;;20.23;70.58
71917;BME280;59793;46.506;6.674;2022-08-21T00:24:42;97269.16;;;20.29;70.31
71917;BME280;59793;46.506;6.674;2022-08-21T00:27:07;97267.66;;;20.24;70.50
71917;BME280;59793;46.506;6.674;2022-08-21T00:29:33;97267.72;;;20.17;71.28
71917;BME280;59793;46.506;6.674;2022-08-21T00:31:58;97280.06;;;20.08;71.60
71917;BME280;59793;46.506;6.674;2022-08-21T00:34:24;97275.94;;;19.99;72.11
71917;BME280;59793;46.506;6.674;2022-08-21T00:36:50;97274.81;;;19.97;71.87
71917;BME280;59793;46.506;6.674;2022-08-21T00:39:15;97276.38;;;19.94;72.20
71917;BME280;59793;46.506;6.674;2022-08-21T00:41:41;97272.94;;;19.94;72.34
71917;BME280;59793;46.506;6.674;2022-08-21T00:44:10;97274.44;;;19.95;72.16
71917;BME280;59793;46.506;6.674;2022-08-21T00:46:37;97274.47;;;19.91;72.29
71917;BME280;59793;46.506;6.674;2022-08-21T00:49:04;97273.66;;;19.98;72.23
71917;BME280;59793;46.506;6.674;2022-08-21T00:51:40;97270.19;;;20.01;72.32
71917;BME280;59793;46.506;6.674;2022-08-21T00:54:09;97275.94;;;19.99;72.21
71917;BME280;59793;46.506;6.674;2022-08-21T00:56:37;97267.91;;;19.99;72.42
71917;BME280;59793;46.506;6.674;2022-08-21T00:59:03;97274.38;;;20.02;72.48
71917;BME280;59793;46.506;6.674;2022-08-21T01:01:30;97271.66;;;20.05;72.35
71917;BME280;59793;46.506;6.674;2022-08-21T01:03:55;97269.44;;;20.00;72.50
71917;BME280;59793;46.506;6.674;2022-08-21T01:06:20;97268.69;;;19.96;72.57
71917;BME280;59793;46.506;6.674;2022-08-21T01:08:47;97269.53;;;19.90;72.35
71917;BME280;59793;46.506;6.674;2022-08-21T01:11:14;97266.94;;;19.83;72.71
71917;BME280;59793;46.506;6.674;2022-08-21T01:13:42;97265.09;;;19.76;72.50
71917;BME280;59793;46.506;6.674;2022-08-21T01:16:12;97261.25;;;19.77;72.15
71917;BME280;59793;46.506;6.674;2022-08-21T01:18:39;97269.25;;;19.77;72.32
71917;BME280;59793;46.506;6.674;2022-08-21T01:21:17;97259.25;;;19.85;71.93
71917;BME280;59793;46.506;6.674;2022-08-21T01:23:45;97263.03;;;19.91;71.64
71917;BME280;59793;46.506;6.674;2022-08-21T01:26:14;97266.84;;;19.93;71.47
71917;BME280;59793;46.506;6.674;2022-08-21T01:28:49;97269.53;;;19.90;71.54
71917;BME280;59793;46.506;6.674;2022-08-21T01:31:19;97258.06;;;19.89;71.73
71917;BME280;59793;46.506;6.674;2022-08-21T01:33:47;97249.03;;;19.76;72.16
71917;BME280;59793;46.506;6.674;2022-08-21T01:36:12;97248.81;;;19.52;73.29
71917;BME280;59793;46.506;6.674;2022-08-21T01:38:38;97247.81;;;19.32;74.11
71917;BME280;59793;46.506;6.674;2022-08-21T01:41:04;97247.44;;;19.33;74.04
71917;BME280;59793;46.506;6.674;2022-08-21T01:43:30;97244.44;;;19.28;74.78
71917;BME280;59793;46.506;6.674;2022-08-21T01:45:55;97251.50;;;18.97;76.04
71917;BME280;59793;46.506;6.674;2022-08-21T01:48:21;97239.72;;;18.91;76.39
71917;BME280;59793;46.506;6.674;2022-08-21T01:50:46;97235.03;;;19.09;75.41
71917;BME280;59793;46.506;6.674;2022-08-21T01:53:11;97235.78;;;19.09;75.49
71917;BME280;59793;46.506;6.674;2022-08-21T01:55:39;97238.47;;;19.09;75.62
71917;BME280;59793;46.506;6.674;2022-08-21T01:58:05;97231.19;;;19.10;75.80
71917;BME280;59793;46.506;6.674;2022-08-21T02:00:30;97238.78;;;19.15;75.23
71917;BME280;59793;46.506;6.674;2022-08-21T02:02:56;97233.03;;;19.20;75.13
71917;BME280;59793;46.506;6.674;2022-08-21T02:05:21;97240.59;;;19.29;74.60
71917;BME280;59793;46.506;6.674;2022-08-21T02:07:49;97234.84;;;19.34;74.45
71917;BME280;59793;46.506;6.674;2022-08-21T02:10:19;97235.19;;;19.36;74.53
71917;BME280;59793;46.506;6.674;2022-08-21T02:12:45;97234.78;;;19.41;74.23
71917;BME280;59793;46.506;6.674;2022-08-21T02:15:11;97229.75;;;19.50;74.24
71917;BME280;59793;46.506;6.674;2022-08-21T02:17:42;97233.22;;;19.47;74.17
71917;BME280;59793;46.506;6.674;2022-08-21T02:20:09;97218.28;;;19.50;73.91
71917;BME280;59793;46.506;6.674;2022-08-21T02:22:35;97224.84;;;19.45;74.06
71917;BME280;59793;46.506;6.674;2022-08-21T02:25:01;97229.06;;;19.39;74.38
71917;BME280;59793;46.506;6.674;2022-08-21T02:27:27;97224.13;;;19.38;74.43
71917;BME280;59793;46.506;6.674;2022-08-21T02:29:56;97231.41;;;19.37;74.14
71917;BME280;59793;46.506;6.674;2022-08-21T02:32:24;97223.34;;;19.41;74.47
71917;BME280;59793;46.506;6.674;2022-08-21T02:34:49;97219.13;;;19.40;74.31
71917;BME280;59793;46.506;6.674;2022-08-21T02:37:15;97226.00;;;19.44;73.65
71917;BME280;59793;46.506;6.674;2022-08-21T02:39:41;97220.19;;;19.53;73.43
71917;BME280;59793;46.506;6.674;2022-08-21T02:42:06;97217.88;;;19.55;73.28
71917;BME280;59793;46.506;6.674;2022-08-21T02:44:32;97223.19;;;19.58;73.25
71917;BME280;59793;46.506;6.674;2022-08-21T02:46:57;97220.94;;;19.53;73.32
71917;BME280;59793;46.506;6.674;2022-08-21T02:49:22;97224.00;;;19.55;73.44
71917;BME280;59793;46.506;6.674;2022-08-21T02:51:50;97219.38;;;19.59;73.76
71917;BME280;59793;46.506;6.674;2022-08-21T02:54:16;97227.38;;;19.59;73.81
71917;BME280;59793;46.506;6.674;2022-08-21T02:56:41;97215.53;;;19.61;73.65
71917;BME280;59793;46.506;6.674;2022-08-21T02:59:07;97215.97;;;19.55;73.28
71917;BME280;59793;46.506;6.674;2022-08-21T03:01:32;97222.47;;;19.54;73.42
71917;BME280;59793;46.506;6.674;2022-08-21T03:03:58;97224.84;;;19.45;74.00
71917;BME280;59793;46.506;6.674;2022-08-21T03:06:24;97219.22;;;19.29;74.28
71917;BME280;59793;46.506;6.674;2022-08-21T03:08:50;97217.41;;;19.22;74.52
71917;BME280;59793;46.506;6.674;2022-08-21T03:11:16;97227.28;;;19.22;74.70
71917;BME280;59793;46.506;6.674;2022-08-21T03:13:42;97224.38;;;19.05;75.14
71917;BME280;59793;46.506;6.674;2022-08-21T03:16:08;97224.78;;;19.00;75.79
71917;BME280;59793;46.506;6.674;2022-08-21T03:18:34;97222.50;;;18.99;75.81
71917;BME280;59793;46.506;6.674;2022-08-21T03:20:59;97227.09;;;18.98;75.78
71917;BME280;59793;46.506;6.674;2022-08-21T03:23:25;97223.63;;;19.01;75.67
71917;BME280;59793;46.506;6.674;2022-08-21T03:25:50;97210.69;;;18.96;75.80
71917;BME280;59793;46.506;6.674;2022-08-21T03:28:19;97209.91;;;18.99;75.41
71917;BME280;59793;46.506;6.674;2022-08-21T03:30:47;97214.13;;;18.97;75.39
71917;BME280;59793;46.506;6.674;2022-08-21T03:33:15;97211.41;;;19.00;75.16
71917;BME280;59793;46.506;6.674;2022-08-21T03:35:42;97213.69;;;19.05;74.77
71917;BME280;59793;46.506;6.674;2022-08-21T03:38:09;97211.50;;;18.90;75.35
71917;BME280;59793;46.506;6.674;2022-08-21T03:40:35;97214.59;;;18.81;75.42
71917;BME280;59793;46.506;6.674;2022-08-21T03:43:00;97213.91;;;18.66;76.24
71917;BME280;59793;46.506;6.674;2022-08-21T03:45:26;97216.69;;;18.41;77.46
71917;BME280;59793;46.506;6.674;2022-08-21T03:48:02;97217.09;;;18.29;77.93
71917;BME280;59793;46.506;6.674;2022-08-21T03:50:30;97214.84;;;18.24;78.37
71917;BME280;59793;46.506;6.674;2022-08-21T03:52:57;97212.56;;;18.19;78.48
71917;BME280;59793;46.506;6.674;2022-08-21T03:55:23;97215.59;;;18.28;78.03
71917;BME280;59793;46.506;6.674;2022-08-21T03:57:49;97227.75;;;18.32;77.98
71917;BME280;59793;46.506;6.674;2022-08-21T04:00:15;97217.09;;;18.29;78.01
71917;BME280;59793;46.506;6.674;2022-08-21T04:02:41;97223.22;;;18.26;77.98
71917;BME280;59793;46.506;6.674;2022-08-21T04:05:08;97214.06;;;18.20;78.49
71917;BME280;59793;46.506;6.674;2022-08-21T04:07:34;97220.94;;;18.28;78.05
71917;BME280;59793;46.506;6.674;2022-08-21T04:10:00;97223.59;;;18.24;77.98
71917;BME280;59793;46.506;6.674;2022-08-21T04:12:25;97223.66;;;18.10;78.59
71917;BME280;59793;46.506;6.674;2022-08-21T04:14:51;97235.47;;;18.02;78.93
71917;BME280;59793;46.506;6.674;2022-08-21T04:17:17;97233.59;;;17.99;79.08
71917;BME280;59793;46.506;6.674;2022-08-21T04:19:43;97228.28;;;17.88;79.17
71917;BME280;59793;46.506;6.674;2022-08-21T04:22:09;97226.75;;;17.80;79.48
71917;BME280;59793;46.506;6.674;2022-08-21T04:24:34;97226.38;;;17.74;80.08
71917;BME280;59793;46.506;6.674;2022-08-21T04:27:00;97226.38;;;17.88;79.53
71917;BME280;59793;46.506;6.674;2022-08-21T04:29:26;97227.09;;;18.00;78.94
71917;BME280;59793;46.506;6.674;2022-08-21T04:31:51;97227.44;;;18.09;78.62
71917;BME280;59793;46.506;6.674;2022-08-21T04:34:17;97225.91;;;18.19;78.10
71917;BME280;59793;46.506;6.674;2022-08-21T04:36:43;97222.50;;;18.14;78.29
71917;BME280;59793;46.506;6.674;2022-08-21T04:39:09;97217.91;;;18.19;78.22
71917;BME280;59793;46.506;6.674;2022-08-21T04:41:34;97229.34;;;18.15;78.28
71917;BME280;59793;46.506;6.674;2022-08-21T04:44:02;97227.03;;;18.28;77.60
71917;BME280;59793;46.506;6.674;2022-08-21T04:46:28;97229.66;;;18.35;77.31
71917;BME280;59793;46.506;6.674;2022-08-21T04:48:54;97227.78;;;18.29;77.55
71917;BME280;59793;46.506;6.674;2022-08-21T04:51:25;97234.63;;;18.30;77.70
71917;BME280;59793;46.506;6.674;2022-08-21T04:53:58;97234.63;;;18.26;77.83
71917;BME280;59793;46.506;6.674;2022-08-21T04:56:31;97230.44;;;18.29;77.27
71917;BME280;59793;46.506;6.674;2022-08-21T04:59:02;97231.59;;;18.24;77.42
71917;BME280;59793;46.506;6.674;2022-08-21T05:01:31;97238.09;;;18.20;77.53
71917;BME280;59793;46.506;6.674;2022-08-21T05:03:59;97235.44;;;18.12;77.86
71917;BME280;59793;46.506;6.674;2022-08-21T05:06:28;97235.44;;;18.09;77.68
71917;BME280;59793;46.506;6.674;2022-08-21T05:08:56;97229.34;;;18.15;77.76
71917;BME280;59793;46.506;6.674;2022-08-21T05:11:22;97228.56;;;18.19;77.55
71917;BME280;59793;46.506;6.674;2022-08-21T05:13:48;97225.53;;;18.24;77.33
71917;BME280;59793;46.506;6.674;2022-08-21T05:16:14;97229.72;;;18.21;77.49
71917;BME280;59793;46.506;6.674;2022-08-21T05:18:41;97225.16;;;18.11;77.81
71917;BME280;59793;46.506;6.674;2022-08-21T05:21:07;97221.00;;;18.03;78.03
71917;BME280;59793;46.506;6.674;2022-08-21T05:23:35;97230.50;;;18.07;77.94
71917;BME280;59793;46.506;6.674;2022-08-21T05:26:02;97226.31;;;18.13;77.31
71917;BME280;59793;46.506;6.674;2022-08-21T05:28:27;97237.00;;;18.10;77.77
71917;BME280;59793;46.506;6.674;2022-08-21T05:30:53;97227.47;;;18.05;77.84
71917;BME280;59793;46.506;6.674;2022-08-21T05:33:19;97232.41;;;18.14;77.29
71917;BME280;59793;46.506;6.674;2022-08-21T05:35:44;97227.03;;;18.25;76.76
71917;BME280;59793;46.506;6.674;2022-08-21T05:38:10;97237.28;;;18.30;76.86
71917;BME280;59793;46.506;6.674;2022-08-21T05:40:35;97238.84;;;18.31;76.84
71917;BME280;59793;46.506;6.674;2022-08-21T05:43:03;97232.34;;;18.32;76.65
71917;BME280;59793;46.506;6.674;2022-08-21T05:45:32;97231.59;;;18.24;76.90
71917;BME280;59793;46.506;6.674;2022-08-21T05:48:04;97233.84;;;18.33;76.76
71917;BME280;59793;46.506;6.674;2022-08-21T05:50:31;97228.47;;;18.44;76.59
71917;BME280;59793;46.506;6.674;2022-08-21T05:52:57;97227.34;;;18.48;76.24
71917;BME280;59793;46.506;6.674;2022-08-21T05:55:22;97226.88;;;18.60;75.96
71917;BME280;59793;46.506;6.674;2022-08-21T05:57:47;97217.69;;;18.69;75.73
71917;BME280;59793;46.506;6.674;2022-08-21T06:00:13;97216.91;;;18.79;75.39
71917;BME280;59793;46.506;6.674;2022-08-21T06:02:42;97220.63;;;18.92;74.85
71917;BME280;59793;46.506;6.674;2022-08-21T06:05:11;97220.97;;;19.01;74.98
71917;BME280;59793;46.506;6.674;2022-08-21T06:07:37;97216.66;;;19.15;74.19
71917;BME280;59793;46.506;6.674;2022-08-21T06:10:03;97221.13;;;19.32;73.55
71917;BME280;59793;46.506;6.674;2022-08-21T06:12:30;97220.28;;;19.42;73.45
71917;BME280;59793;46.506;6.674;2022-08-21T06:14:57;97217.94;;;19.48;73.13
71917;BME280;59793;46.506;6.674;2022-08-21T06:17:22;97220.16;;;19.56;72.90
71917;BME280;59793;46.506;6.674;2022-08-21T06:19:52;97207.91;;;19.63;72.87
71917;BME280;59793;46.506;6.674;2022-08-21T06:22:21;97209.19;;;19.89;72.22
71917;BME280;59793;46.506;6.674;2022-08-21T06:24:48;97216.63;;;20.08;71.73
71917;BME280;59793;46.506;6.674;2022-08-21T06:27:14;97206.16;;;20.21;71.47
71917;BME280;59793;46.506;6.674;2022-08-21T06:29:41;97207.19;;;20.30;71.30
71917;BME280;59793;46.506;6.674;2022-08-21T06:32:11;97208.53;;;20.46;71.31
71917;BME280;59793;46.506;6.674;2022-08-21T06:34:38;97206.44;;;20.64;70.59
71917;BME280;59793;46.506;6.674;2022-08-21T06:37:04;97218.13;;;20.74;69.18
71917;BME280;59793;46.506;6.674;2022-08-21T06:39:30;97222.25;;;20.82;68.96
71917;BME280;59793;46.506;6.674;2022-08-21T06:41:55;97217.03;;;20.98;68.11
71917;BME280;59793;46.506;6.674;2022-08-21T06:44:21;97223.13;;;21.26;67.66
71917;BME280;59793;46.506;6.674;2022-08-21T06:46:47;97218.25;;;21.44;66.50
71917;BME280;59793;46.506;6.674;2022-08-21T06:57:23;97225.03;;;21.53;65.40
71917;BME280;59793;46.506;6.674;2022-08-21T06:59:58;97211.00;;;21.45;65.53
71917;BME280;59793;46.506;6.674;2022-08-21T07:35:59;97228.34;;;22.04;59.99
71917;BME280;59793;46.506;6.674;2022-08-21T07:38:35;97225.34;;;22.41;59.93
71917;BME280;59793;46.506;6.674;2022-08-21T07:41:26;97228.28;;;22.67;58.83
71917;BME280;59793;46.506;6.674;2022-08-21T07:43:54;97241.63;;;22.11;60.28
71917;BME280;59793;46.506;6.674;2022-08-21T07:46:23;97238.50;;;22.16;60.01
71917;BME280;59793;46.506;6.674;2022-08-21T07:48:55;97235.22;;;22.05;61.84
71917;BME280;59793;46.506;6.674;2022-08-21T07:51:40;97229.75;;;22.32;61.45
71917;BME280;59793;46.506;6.674;2022-08-21T07:54:26;97231.06;;;22.24;61.63
71917;BME280;59793;46.506;6.674;2022-08-21T07:56:52;97236.38;;;22.27;61.14
71917;BME280;59793;46.506;6.674;2022-08-21T07:59:19;97247.94;;;22.24;61.39
71917;BME280;59793;46.506;6.674;2022-08-21T08:06:55;97244.69;;;22.53;63.80
71917;BME280;59793;46.506;6.674;2022-08-21T08:09:24;97240.72;;;22.41;63.27
71917;BME280;59793;46.506;6.674;2022-08-21T08:11:49;97236.38;;;22.27;62.95
71917;BME280;59793;46.506;6.674;2022-08-21T08:14:14;97223.13;;;22.36;62.11
71917;BME280;59793;46.506;6.674;2022-08-21T08:16:41;97235.50;;;22.70;61.99
71917;BME280;59793;46.506;6.674;2022-08-21T08:19:07;97230.41;;;23.12;60.28
71917;BME280;59793;46.506;6.674;2022-08-21T08:21:33;97222.31;;;23.12;59.95
71917;BME280;59793;46.506;6.674;2022-08-21T08:24:02;97221.47;;;22.99;60.93
71917;BME280;59793;46.506;6.674;2022-08-21T08:26:28;97221.16;;;22.77;61.86
71917;BME280;59793;46.506;6.674;2022-08-21T08:29:00;97215.13;;;22.89;61.24
71917;BME280;59793;46.506;6.674;2022-08-21T08:31:48;97209.31;;;23.27;60.22
71917;BME280;59793;46.506;6.674;2022-08-21T08:34:28;97213.72;;;23.50;59.91
71917;BME280;59793;46.506;6.674;2022-08-21T08:36:55;97207.94;;;23.68;59.87
71917;BME280;59793;46.506;6.674;2022-08-21T08:39:44;97217.63;;;23.32;59.99
71917;BME280;59793;46.506;6.674;2022-08-21T08:42:28;97219.00;;;22.88;61.62
71917;BME280;59793;46.506;6.674;2022-08-21T08:45:02;97212.34;;;22.76;62.40
71917;BME280;59793;46.506;6.674;2022-08-21T08:47:31;97206.06;;;22.83;62.46
71917;BME280;59793;46.506;6.674;2022-08-21T08:50:07;97209.97;;;22.98;61.07
71917;BME280;59793;46.506;6.674;2022-08-21T08:52:58;97201.38;;;22.51;62.46
71917;BME280;59793;46.506;6.674;2022-08-21T08:55:35;97195.84;;;22.58;62.57
71917;BME280;59793;46.506;6.674;2022-08-21T08:58:02;97194.34;;;23.09;60.69
71917;BME280;59793;46.506;6.674;2022-08-21T09:00:28;97186.16;;;23.46;59.43
71917;BME280;59793;46.506;6.674;2022-08-21T09:03:05;97183.06;;;23.47;59.90
71917;BME280;59793;46.506;6.674;2022-08-21T09:05:55;97184.00;;;23.41;60.65
71917;BME280;59793;46.506;6.674;2022-08-21T09:11:03;97179.03;;;23.72;59.84
71917;BME280;59793;46.506;6.674;2022-08-21T09:14:05;97184.13;;;23.66;59.76
71917;BME280;59793;46.506;6.674;2022-08-21T09:16:55;97180.47;;;23.44;60.63
71917;BME280;59793;46.506;6.674;2022-08-21T09:22:19;97162.31;;;23.93;58.24
71917;BME280;59793;46.506;6.674;2022-08-21T09:25:21;97168.00;;;23.95;58.05
71917;BME280;59793;46.506;6.674;2022-08-21T09:27:48;97157.72;;;24.06;57.53
71917;BME280;59793;46.506;6.674;2022-08-21T09:30:15;97157.88;;;23.87;58.49
71917;BME280;59793;46.506;6.674;2022-08-21T09:32:41;97161.56;;;24.05;58.56
71917;BME280;59793;46.506;6.674;2022-08-21T09:35:11;97170.41;;;24.06;57.75
71917;BME280;59793;46.506;6.674;2022-08-21T09:42:58;97162.81;;;23.88;60.82
71917;BME280;59793;46.506;6.674;2022-08-21T09:45:27;97158.09;;;23.92;60.86
71917;BME280;59793;46.506;6.674;2022-08-21T09:47:54;97162.41;;;23.90;60.49
71917;BME280;59793;46.506;6.674;2022-08-21T09:50:24;97153.91;;;23.46;61.78
71917;BME280;59793;46.506;6.674;2022-08-21T09:52:58;97144.50;;;23.54;60.84
71917;BME280;59793;46.506;6.674;2022-08-21T09:55:51;97153.88;;;24.33;59.35
71917;BME280;59793;46.506;6.674;2022-08-21T09:58:38;97147.50;;;24.14;59.29
71917;BME280;59793;46.506;6.674;2022-08-21T10:01:11;97147.53;;;23.40;62.58
71917;BME280;59793;46.506;6.674;2022-08-21T10:04:08;97146.75;;;23.84;61.42
71917;BME280;59793;46.506;6.674;2022-08-21T10:06:36;97144.09;;;24.52;59.79
71917;BME280;59793;46.506;6.674;2022-08-21T10:09:17;97140.03;;;24.60;59.46
71917;BME280;59793;46.506;6.674;2022-08-21T10:17:26;97133.38;;;25.25;55.47
71917;BME280;59793;46.506;6.674;2022-08-21T10:20:22;97133.19;;;25.76;54.20
71917;BME280;59793;46.506;6.674;2022-08-21T10:26:27;97123.09;;;25.55;52.59
71917;BME280;59793;46.506;6.674;2022-08-21T10:29:06;97125.06;;;25.54;52.53
71917;BME280;59793;46.506;6.674;2022-08-21T10:34:41;97115.03;;;25.77;49.86
71917;BME280;59793;46.506;6.674;2022-08-21T10:40:21;97103.50;;;26.29;48.06
71917;BME280;59793;46.506;6.674;2022-08-21T10:46:33;97103.56;;;25.85;47.94
71917;BME280;59793;46.506;6.674;2022-08-21T10:48:42;97109.13;;;25.47;50.92
71917;BME280;59793;46.506;6.674;2022-08-21T10:54:13;97103.00;;;26.21;48.68
71917;BME280;59793;46.506;6.674;2022-08-21T10:56:43;97098.31;;;25.47;52.10
71917;BME280;59793;46.506;6.674;2022-08-21T10:59:46;97094.38;;;25.83;52.68
71917;BME280;59793;46.506;6.674;2022-08-21T11:02:52;97094.75;;;25.50;53.34
71917;BME280;59793;46.506;6.674;2022-08-21T11:05:14;97088.75;;;26.21;50.87
71917;BME280;59793;46.506;6.674;2022-08-21T11:10:28;97083.41;;;26.89;48.53
71917;BME280;59793;46.506;6.674;2022-08-21T11:13:03;97081.19;;;27.06;46.14
71917;BME280;59793;46.506;6.674;2022-08-21T11:15:43;97077.16;;;27.29;46.23
71917;BME280;59793;46.506;6.674;2022-08-21T11:23:50;97073.66;;;26.82;46.88
71917;BME280;59793;46.506;6.674;2022-08-21T11:26:47;97070.94;;;26.91;48.97
71917;BME280;59793;46.506;6.674;2022-08-21T11:37:27;97061.22;;;27.31;47.01
71917;BME280;59793;46.506;6.674;2022-08-21T11:45:55;97053.25;;;27.46;46.30
71917;BME280;59793;46.506;6.674;2022-08-21T11:50:50;97043.63;;;27.54;46.65
71917;BME280;59793;46.506;6.674;2022-08-21T11:53:24;97045.25;;;26.78;48.19
71917;BME280;59793;46.506;6.674;2022-08-21T11:56:24;97041.22;;;27.10;48.47
71917;BME280;59793;46.506;6.674;2022-08-21T11:58:59;97038.56;;;27.98;45.85
71917;BME280;59793;46.506;6.674;2022-08-21T12:01:33;97041.31;;;27.89;45.57
71917;BME280;59793;46.506;6.674;2022-08-21T12:04:25;97038.56;;;28.31;47.02
71917;BME280;59793;46.506;6.674;2022-08-21T12:06:51;97041.09;;;27.32;48.10
71917;BME280;59793;46.506;6.674;2022-08-21T12:12:02;97036.66;;;28.23;45.51
71917;BME280;59793;46.506;6.674;2022-08-21T12:14:44;97035.50;;;27.08;48.33
71917;BME280;59793;46.506;6.674;2022-08-21T12:17:26;97033.53;;;27.54;47.85
71917;BME280;59793;46.506;6.674;2022-08-21T12:22:55;97025.50;;;27.87;47.74
71917;BME280;59793;46.506;6.674;2022-08-21T12:25:36;97028.72;;;27.58;48.24
71917;BME280;59793;46.506;6.674;2022-08-21T12:28:08;97022.16;;;27.32;49.42
71917;BME280;59793;46.506;6.674;2022-08-21T12:30:38;97013.22;;;27.59;48.05
71917;BME280;59793;46.506;6.674;2022-08-21T12:33:18;97023.75;;;28.08;46.43
71917;BME280;59793;46.506;6.674;2022-08-21T12:35:46;97014.69;;;28.54;45.58
71917;BME280;59793;46.506;6.674;2022-08-21T12:38:28;97025.41;;;28.48;45.40
71917;BME280;59793;46.506;6.674;2022-08-21T12:41:19;97026.44;;;28.18;45.01
71917;BME280;59793;46.506;6.674;2022-08-21T12:44:14;97015.53;;;28.84;43.66
71917;BME280;59793;46.506;6.674;2022-08-21T12:46:52;97024.13;;;29.06;41.96
71917;BME280;59793;46.506;6.674;2022-08-21T12:49:36;97023.16;;;29.48;41.42
71917;BME280;59793;46.506;6.674;2022-08-21T12:52:30;97021.63;;;28.94;41.62
71917;BME280;59793;46.506;6.674;2022-08-21T12:54:57;97025.97;;;29.00;42.61
71917;BME280;59793;46.506;6.674;2022-08-21T12:57:28;97010.75;;;28.79;42.45
71917;BME280;59793;46.506;6.674;2022-08-21T13:00:21;97009.22;;;28.63;43.29
71917;BME280;59793;46.506;6.674;2022-08-21T13:02:51;97009.38;;;28.59;43.39
71917;BME280;59793;46.506;6.674;2022-08-21T13:05:32;97013.38;;;28.73;43.52
71917;BME280;59793;46.506;6.674;2022-08-21T13:08:04;97015.44;;;28.54;43.04
71917;BME280;59793;46.506;6.674;2022-08-21T13:10:31;97013.22;;;28.92;43.30
71917;BME280;59793;46.506;6.674;2022-08-21T13:13:02;97006.34;;;29.05;42.63
71917;BME280;59793;46.506;6.674;2022-08-21T13:15:49;97007.31;;;28.93;41.67
71917;BME280;59793;46.506;6.674;2022-08-21T13:18:24;97005.63;;;29.05;42.18
71917;BME280;59793;46.506;6.674;2022-08-21T13:20:50;96998.22;;;29.20;42.34
71917;BME280;59793;46.506;6.674;2022-08-21T13:23:26;97003.59;;;29.44;40.71
71917;BME280;59793;46.506;6.674;2022-08-21T13:25:53;96993.72;;;29.47;40.36
71917;BME280;59793;46.506;6.674;2022-08-21T13:28:21;96990.00;;;29.29;40.70
71917;BME280;59793;46.506;6.674;2022-08-21T13:30:52;96986.44;;;29.23;40.58
71917;BME280;59793;46.506;6.674;2022-08-21T13:33:21;96978.13;;;29.71;40.93
71917;BME280;59793;46.506;6.674;2022-08-21T13:36:01;96977.28;;;29.80;39.23
71917;BME280;59793;46.506;6.674;2022-08-21T13:38:34;96983.72;;;29.09;40.55
71917;BME280;59793;46.506;6.674;2022-08-21T13:41:26;96987.28;;;29.44;39.89
71917;BME280;59793;46.506;6.674;2022-08-21T13:44:02;96969.34;;;29.62;38.92
71917;BME280;59793;46.506;6.674;2022-08-21T13:46:31;96972.06;;;29.62;38.13
71917;BME280;59793;46.506;6.674;2022-08-21T13:48:59;96981.94;;;29.05;40.66
71917;BME280;59793;46.506;6.674;2022-08-21T13:51:26;96980.69;;;28.68;41.30
71917;BME280;59793;46.506;6.674;2022-08-21T13:53:53;96976.72;;;29.17;40.65
71917;BME280;59793;46.506;6.674;2022-08-21T13:56:42;96975.19;;;29.01;40.58
71917;BME280;59793;46.506;6.674;2022-08-21T13:59:31;96971.59;;;28.80;41.94
71917;BME280;59793;46.506;6.674;2022-08-21T14:02:11;96977.56;;;28.84;42.56
71917;BME280;59793;46.506;6.674;2022-08-21T14:04:43;96966.69;;;29.38;41.42
71917;BME280;59793;46.506;6.674;2022-08-21T14:07:17;96959.78;;;29.66;42.14
71917;BME280;59793;46.506;6.674;2022-08-21T14:09:44;96951.81;;;29.63;43.73
71917;BME280;59793;46.506;6.674;2022-08-21T14:12:27;96960.53;;;29.67;42.95
71917;BME280;59793;46.506;6.674;2022-08-21T14:14:56;96957.44;;;29.29;40.41
71917;BME280;59793;46.506;6.674;2022-08-21T14:17:42;96952.81;;;29.50;38.72
71917;BME280;59793;46.506;6.674;2022-08-21T14:20:11;96960.91;;;29.60;38.41
71917;BME280;59793;46.506;6.674;2022-08-21T14:22:43;96958.31;;;30.00;37.95
71917;BME280;59793;46.506;6.674;2022-08-21T14:27:50;96954.03;;;30.29;37.83
71917;BME280;59793;46.506;6.674;2022-08-21T14:30:22;96947.41;;;29.21;40.38
71917;BME280;59793;46.506;6.674;2022-08-21T14:32:52;96940.50;;;28.66;41.05
71917;BME280;59793;46.506;6.674;2022-08-21T14:35:17;96943.69;;;28.79;41.44
71917;BME280;59793;46.506;6.674;2022-08-21T14:37:44;96934.50;;;28.62;43.85
71917;BME280;59793;46.506;6.674;2022-08-21T14:40:10;96951.06;;;28.40;45.60
71917;BME280;59793;46.506;6.674;2022-08-21T14:42:38;96940.38;;;28.61;43.64
71917;BME280;59793;46.506;6.674;2022-08-21T14:45:30;96943.41;;;29.16;41.28
71917;BME280;59793;46.506;6.674;2022-08-21T14:47:58;96939.34;;;29.12;43.54
71917;BME280;59793;46.506;6.674;2022-08-21T14:50:24;96937.28;;;28.53;43.74
71917;BME280;59793;46.506;6.674;2022-08-21T14:52:49;96937.09;;;28.08;44.63
71917;BME280;59793;46.506;6.674;2022-08-21T14:55:17;96935.19;;;28.87;45.39
71917;BME280;59793;46.506;6.674;2022-08-21T14:57:47;96931.03;;;29.15;44.67
71917;BME280;59793;46.506;6.674;2022-08-21T15:00:15;96929.22;;;28.44;44.83
71917;BME280;59793;46.506;6.674;2022-08-21T15:02:42;96927.03;;;28.72;43.99
71917;BME280;59793;46.506;6.674;2022-08-21T15:05:08;96926.22;;;28.80;42.47
71917;BME280;59793;46.506;6.674;2022-08-21T15:07:35;96921.34;;;28.70;39.86
71917;BME280;59793;46.506;6.674;2022-08-21T15:10:00;96930.00;;;28.98;41.72